Point Lay Lrrs Airport
PPIZ : now visible

Airfield :











YOU CAN JOIN US ON...

 
LOGIN :

Register | Disclaimer

   EN    FR    IT 

 









Legend :    VFR   Marginal VFR   IFR   Intensive IFR   Very Intensive IFR
Visi :
Ceiling :
>= 8 km
>= 3000ft
5 to 8 km
1000 to 3000 ft
1500m to 5 km
500 to 1000 ft
800 to 1500m
200 to 500 ft
< 800m
< 200 ft
Symbols :   Thunderstorms  Fog  Heavy snow  Heavy precipitations  Wind > 20 kt






- Airport Elevation : 22 ft
- IATA code : PIZ


PPIZ - Point Lay Lrrs

CURRENT METAR :
  • 230456Z AUTO 19007KT 10SM OVC014 00/M01 A3046 RMK AO2 SLP317 T00001006 FZRANO

EXPIRED METARs :
  • 230356Z AUTO 19007KT 10SM OVC014 00/M01 A3046 RMK AO2 SLP319 T00001006 FZRANO
  • 230256Z AUTO 20008KT 10SM BKN014 BKN026 OVC044 00/M01 A3046 RMK AO2 SLP319 T00001006 58004 FZRANO
  • 230218Z AUTO 18008KT 10SM BKN014 BKN026 OVC048 00/M01 A3047 RMK AO2 FZRANO

TAF N/A
PAZA FIR / North America



MET'MAP, your aeronautical weather chart ! - Copyright ORBIFLY December 2007 - Disclaimer

ORBIFLY MET'MAP TEAM :

Programming & Development : Alexandra Zaïnal
Concept & original design : Baudouin d'Aumeries
Assistance for programming : Marc-Olivier Méhu
Technical & hardware support : Manuel Goepfert

Contact : metmap@orbifly.com




SOURCES & CREDITS :

   NOAA       Earth
Advisory